Terminal Aerodrome Forecast
Issued by NWS

Home | Current Version | Previous Version | Text Only | Print | Product List | Glossary On
Versions: 1 2 3 4 5 6 7 8 9 10 11 12 13 14 15 16 17 18 19 20 21 22 23 24 25 26 27 28
000
FTUS43 KDLH 011100 RRA
TAFBRD
TAF
KBRD 011143Z 0112/0212 29010KT P6SM SCT015 SCT050
     FM011900 26011KT P6SM BKN035
     FM020100 29009KT P6SM SKC
     FM020700 29005KT P6SM SKC=

USA.gov is the U.S. government's official web portal to all federal, state and local government web resources and services.